sensor_id;sensor_type;location;lat;lon;timestamp;P1;durP1;ratioP1;P2;durP2;ratioP2
33814;SDS011;20121;51.910;8.406;2022-11-13T00:00:31;13.07;;;4.93;;
33814;SDS011;20121;51.910;8.406;2022-11-13T00:02:57;4.43;;;4.03;;
33814;SDS011;20121;51.910;8.406;2022-11-13T00:05:23;7.60;;;3.57;;
33814;SDS011;20121;51.910;8.406;2022-11-13T00:07:49;4.00;;;3.67;;
33814;SDS011;20121;51.910;8.406;2022-11-13T00:10:14;4.60;;;2.30;;
33814;SDS011;20121;51.910;8.406;2022-11-13T00:12:40;6.53;;;4.10;;
33814;SDS011;20121;51.910;8.406;2022-11-13T00:15:06;6.70;;;3.13;;
33814;SDS011;20121;51.910;8.406;2022-11-13T00:17:32;4.18;;;3.88;;
33814;SDS011;20121;51.910;8.406;2022-11-13T00:19:58;13.03;;;5.73;;
33814;SDS011;20121;51.910;8.406;2022-11-13T00:22:23;4.60;;;4.30;;
33814;SDS011;20121;51.910;8.406;2022-11-13T00:24:49;8.20;;;5.07;;
33814;SDS011;20121;51.910;8.406;2022-11-13T00:27:14;7.70;;;4.27;;
33814;SDS011;20121;51.910;8.406;2022-11-13T00:29:40;4.30;;;3.90;;
33814;SDS011;20121;51.910;8.406;2022-11-13T00:32:06;6.23;;;3.20;;
33814;SDS011;20121;51.910;8.406;2022-11-13T00:34:31;11.10;;;5.00;;
33814;SDS011;20121;51.910;8.406;2022-11-13T00:36:57;4.47;;;4.07;;
33814;SDS011;20121;51.910;8.406;2022-11-13T00:39:23;4.43;;;4.03;;
33814;SDS011;20121;51.910;8.406;2022-11-13T00:41:48;5.80;;;5.23;;
33814;SDS011;20121;51.910;8.406;2022-11-13T00:44:14;11.10;;;3.87;;
33814;SDS011;20121;51.910;8.406;2022-11-13T00:46:39;5.00;;;4.03;;
33814;SDS011;20121;51.910;8.406;2022-11-13T00:49:05;10.33;;;5.70;;
33814;SDS011;20121;51.910;8.406;2022-11-13T00:51:31;3.67;;;3.33;;
33814;SDS011;20121;51.910;8.406;2022-11-13T00:53:56;10.60;;;3.63;;
33814;SDS011;20121;51.910;8.406;2022-11-13T00:56:22;5.70;;;5.13;;
33814;SDS011;20121;51.910;8.406;2022-11-13T00:58:48;5.50;;;5.03;;
33814;SDS011;20121;51.910;8.406;2022-11-13T01:01:15;16.65;;;4.53;;
33814;SDS011;20121;51.910;8.406;2022-11-13T01:03:43;6.28;;;4.30;;
33814;SDS011;20121;51.910;8.406;2022-11-13T01:06:09;3.27;;;2.90;;
33814;SDS011;20121;51.910;8.406;2022-11-13T01:08:37;8.82;;;3.72;;
33814;SDS011;20121;51.910;8.406;2022-11-13T01:11:09;4.97;;;4.07;;
33814;SDS011;20121;51.910;8.406;2022-11-13T01:13:36;4.95;;;4.47;;
33814;SDS011;20121;51.910;8.406;2022-11-13T01:16:04;11.10;;;5.15;;
33814;SDS011;20121;51.910;8.406;2022-11-13T01:18:31;4.82;;;3.17;;
33814;SDS011;20121;51.910;8.406;2022-11-13T01:21:03;5.90;;;3.70;;
33814;SDS011;20121;51.910;8.406;2022-11-13T01:23:30;6.88;;;5.13;;
33814;SDS011;20121;51.910;8.406;2022-11-13T01:26:03;5.78;;;3.72;;
33814;SDS011;20121;51.910;8.406;2022-11-13T01:28:34;8.63;;;4.22;;
33814;SDS011;20121;51.910;8.406;2022-11-13T01:31:03;3.08;;;2.97;;
33814;SDS011;20121;51.910;8.406;2022-11-13T01:33:33;7.60;;;4.68;;
33814;SDS011;20121;51.910;8.406;2022-11-13T01:36:10;4.50;;;3.67;;
33814;SDS011;20121;51.910;8.406;2022-11-13T01:38:38;5.43;;;4.05;;
33814;SDS011;20121;51.910;8.406;2022-11-13T01:41:04;6.90;;;3.20;;
33814;SDS011;20121;51.910;8.406;2022-11-13T01:43:34;3.83;;;3.53;;
33814;SDS011;20121;51.910;8.406;2022-11-13T01:48:57;5.78;;;4.43;;
33814;SDS011;20121;51.910;8.406;2022-11-13T01:51:28;6.35;;;2.55;;
33814;SDS011;20121;51.910;8.406;2022-11-13T01:53:57;4.22;;;3.63;;
33814;SDS011;20121;51.910;8.406;2022-11-13T01:56:25;4.03;;;3.80;;
33814;SDS011;20121;51.910;8.406;2022-11-13T01:58:57;4.97;;;3.53;;
33814;SDS011;20121;51.910;8.406;2022-11-13T02:01:37;9.77;;;3.05;;
33814;SDS011;20121;51.910;8.406;2022-11-13T02:04:02;6.37;;;4.20;;
33814;SDS011;20121;51.910;8.406;2022-11-13T02:06:35;11.30;;;4.80;;
33814;SDS011;20121;51.910;8.406;2022-11-13T02:09:06;7.90;;;5.22;;
33814;SDS011;20121;51.910;8.406;2022-11-13T02:11:33;14.88;;;2.70;;
33814;SDS011;20121;51.910;8.406;2022-11-13T02:14:00;6.53;;;4.63;;
33814;SDS011;20121;51.910;8.406;2022-11-13T02:16:28;4.38;;;3.38;;
33814;SDS011;20121;51.910;8.406;2022-11-13T02:18:56;4.68;;;4.28;;
33814;SDS011;20121;51.910;8.406;2022-11-13T02:24:10;9.65;;;2.58;;
33814;SDS011;20121;51.910;8.406;2022-11-13T02:26:48;3.85;;;3.55;;
33814;SDS011;20121;51.910;8.406;2022-11-13T02:29:17;7.93;;;2.70;;
33814;SDS011;20121;51.910;8.406;2022-11-13T02:31:43;2.50;;;2.30;;
33814;SDS011;20121;51.910;8.406;2022-11-13T02:34:09;2.33;;;2.13;;
33814;SDS011;20121;51.910;8.406;2022-11-13T02:36:34;4.67;;;2.80;;
33814;SDS011;20121;51.910;8.406;2022-11-13T02:39:03;3.25;;;2.78;;
33814;SDS011;20121;51.910;8.406;2022-11-13T02:41:31;2.30;;;2.13;;
33814;SDS011;20121;51.910;8.406;2022-11-13T02:43:57;5.13;;;2.87;;
33814;SDS011;20121;51.910;8.406;2022-11-13T02:46:22;2.83;;;2.47;;
33814;SDS011;20121;51.910;8.406;2022-11-13T02:48:48;6.90;;;3.73;;
33814;SDS011;20121;51.910;8.406;2022-11-13T02:51:13;5.53;;;3.27;;
33814;SDS011;20121;51.910;8.406;2022-11-13T02:53:39;2.13;;;2.00;;
33814;SDS011;20121;51.910;8.406;2022-11-13T02:56:05;4.40;;;3.00;;
33814;SDS011;20121;51.910;8.406;2022-11-13T02:58:31;1.90;;;1.75;;
33814;SDS011;20121;51.910;8.406;2022-11-13T03:00:56;3.67;;;2.40;;
33814;SDS011;20121;51.910;8.406;2022-11-13T03:03:24;2.20;;;2.10;;
33814;SDS011;20121;51.910;8.406;2022-11-13T03:05:50;3.50;;;3.07;;
33814;SDS011;20121;51.910;8.406;2022-11-13T03:08:16;1.90;;;1.60;;
33814;SDS011;20121;51.910;8.406;2022-11-13T03:10:41;2.00;;;1.50;;
33814;SDS011;20121;51.910;8.406;2022-11-13T03:13:07;2.33;;;2.20;;
33814;SDS011;20121;51.910;8.406;2022-11-13T03:15:33;3.10;;;2.90;;
33814;SDS011;20121;51.910;8.406;2022-11-13T03:18:02;2.95;;;2.70;;
33814;SDS011;20121;51.910;8.406;2022-11-13T03:20:29;1.73;;;1.63;;
33814;SDS011;20121;51.910;8.406;2022-11-13T03:22:55;4.75;;;3.35;;
33814;SDS011;20121;51.910;8.406;2022-11-13T03:25:20;4.27;;;3.87;;
33814;SDS011;20121;51.910;8.406;2022-11-13T03:27:46;2.00;;;1.90;;
33814;SDS011;20121;51.910;8.406;2022-11-13T03:30:12;3.00;;;2.70;;
33814;SDS011;20121;51.910;8.406;2022-11-13T03:32:37;7.90;;;1.97;;
33814;SDS011;20121;51.910;8.406;2022-11-13T03:35:04;2.70;;;2.50;;
33814;SDS011;20121;51.910;8.406;2022-11-13T03:37:30;2.38;;;2.17;;
33814;SDS011;20121;51.910;8.406;2022-11-13T03:39:55;1.63;;;1.53;;
33814;SDS011;20121;51.910;8.406;2022-11-13T03:42:21;2.53;;;1.63;;
33814;SDS011;20121;51.910;8.406;2022-11-13T03:44:46;1.57;;;1.47;;
33814;SDS011;20121;51.910;8.406;2022-11-13T03:47:12;1.90;;;1.80;;
33814;SDS011;20121;51.910;8.406;2022-11-13T03:49:38;3.72;;;2.05;;
33814;SDS011;20121;51.910;8.406;2022-11-13T03:52:04;2.60;;;1.50;;
33814;SDS011;20121;51.910;8.406;2022-11-13T03:54:30;1.37;;;1.27;;
33814;SDS011;20121;51.910;8.406;2022-11-13T03:56:55;2.30;;;1.63;;
33814;SDS011;20121;51.910;8.406;2022-11-13T03:59:21;1.45;;;1.35;;
33814;SDS011;20121;51.910;8.406;2022-11-13T04:01:47;2.00;;;1.90;;
33814;SDS011;20121;51.910;8.406;2022-11-13T04:04:12;2.17;;;2.03;;
33814;SDS011;20121;51.910;8.406;2022-11-13T04:06:39;1.25;;;1.15;;
33814;SDS011;20121;51.910;8.406;2022-11-13T04:09:05;1.73;;;1.53;;
33814;SDS011;20121;51.910;8.406;2022-11-13T04:11:31;2.17;;;1.97;;
33814;SDS011;20121;51.910;8.406;2022-11-13T04:13:56;1.60;;;1.37;;
33814;SDS011;20121;51.910;8.406;2022-11-13T04:16:22;3.83;;;2.80;;
33814;SDS011;20121;51.910;8.406;2022-11-13T04:18:47;1.97;;;1.53;;
33814;SDS011;20121;51.910;8.406;2022-11-13T04:21:13;0.93;;;0.90;;
33814;SDS011;20121;51.910;8.406;2022-11-13T04:23:39;3.93;;;3.13;;
33814;SDS011;20121;51.910;8.406;2022-11-13T04:26:04;2.83;;;2.03;;
33814;SDS011;20121;51.910;8.406;2022-11-13T04:28:30;1.70;;;1.53;;
33814;SDS011;20121;51.910;8.406;2022-11-13T04:30:56;1.50;;;1.40;;
33814;SDS011;20121;51.910;8.406;2022-11-13T04:33:21;1.43;;;1.33;;
33814;SDS011;20121;51.910;8.406;2022-11-13T04:35:47;1.83;;;1.60;;
33814;SDS011;20121;51.910;8.406;2022-11-13T04:38:13;4.93;;;1.77;;
33814;SDS011;20121;51.910;8.406;2022-11-13T04:40:39;2.05;;;1.45;;
33814;SDS011;20121;51.910;8.406;2022-11-13T04:43:05;1.80;;;1.70;;
33814;SDS011;20121;51.910;8.406;2022-11-13T04:45:31;1.20;;;0.90;;
33814;SDS011;20121;51.910;8.406;2022-11-13T04:47:56;4.90;;;2.87;;
33814;SDS011;20121;51.910;8.406;2022-11-13T04:50:22;1.60;;;1.50;;
33814;SDS011;20121;51.910;8.406;2022-11-13T04:52:48;1.33;;;1.10;;
33814;SDS011;20121;51.910;8.406;2022-11-13T04:55:14;1.25;;;1.15;;
33814;SDS011;20121;51.910;8.406;2022-11-13T04:57:40;1.00;;;0.90;;
33814;SDS011;20121;51.910;8.406;2022-11-13T05:00:06;1.63;;;1.15;;
33814;SDS011;20121;51.910;8.406;2022-11-13T05:02:33;4.10;;;1.92;;
33814;SDS011;20121;51.910;8.406;2022-11-13T05:04:59;0.80;;;0.75;;
33814;SDS011;20121;51.910;8.406;2022-11-13T05:07:25;1.90;;;1.70;;
33814;SDS011;20121;51.910;8.406;2022-11-13T05:09:51;2.97;;;1.85;;
33814;SDS011;20121;51.910;8.406;2022-11-13T05:12:17;1.83;;;1.73;;
33814;SDS011;20121;51.910;8.406;2022-11-13T05:14:43;1.53;;;1.43;;
33814;SDS011;20121;51.910;8.406;2022-11-13T05:17:09;3.47;;;2.90;;
33814;SDS011;20121;51.910;8.406;2022-11-13T05:19:35;1.20;;;1.10;;
33814;SDS011;20121;51.910;8.406;2022-11-13T05:22:02;1.83;;;1.73;;
33814;SDS011;20121;51.910;8.406;2022-11-13T05:24:27;1.23;;;1.13;;
33814;SDS011;20121;51.910;8.406;2022-11-13T05:26:53;2.20;;;1.67;;
33814;SDS011;20121;51.910;8.406;2022-11-13T05:29:18;1.37;;;1.27;;
33814;SDS011;20121;51.910;8.406;2022-11-13T05:31:44;1.33;;;1.23;;
33814;SDS011;20121;51.910;8.406;2022-11-13T05:34:10;1.42;;;1.23;;
33814;SDS011;20121;51.910;8.406;2022-11-13T05:36:36;0.80;;;0.80;;
33814;SDS011;20121;51.910;8.406;2022-11-13T05:39:02;3.33;;;1.00;;
33814;SDS011;20121;51.910;8.406;2022-11-13T05:41:28;1.00;;;1.00;;
33814;SDS011;20121;51.910;8.406;2022-11-13T05:43:53;1.23;;;1.13;;
33814;SDS011;20121;51.910;8.406;2022-11-13T05:46:20;1.23;;;1.13;;
33814;SDS011;20121;51.910;8.406;2022-11-13T05:48:51;1.02;;;0.95;;
33814;SDS011;20121;51.910;8.406;2022-11-13T05:51:22;1.15;;;1.05;;
33814;SDS011;20121;51.910;8.406;2022-11-13T05:53:49;0.82;;;0.80;;
33814;SDS011;20121;51.910;8.406;2022-11-13T05:56:17;1.10;;;1.00;;
33814;SDS011;20121;51.910;8.406;2022-11-13T05:58:51;0.60;;;0.60;;
33814;SDS011;20121;51.910;8.406;2022-11-13T06:01:18;0.80;;;0.80;;
33814;SDS011;20121;51.910;8.406;2022-11-13T06:03:46;1.38;;;1.25;;
33814;SDS011;20121;51.910;8.406;2022-11-13T06:06:16;1.90;;;1.77;;
33814;SDS011;20121;51.910;8.406;2022-11-13T06:08:44;0.70;;;0.70;;
33814;SDS011;20121;51.910;8.406;2022-11-13T06:11:15;0.70;;;0.70;;
33814;SDS011;20121;51.910;8.406;2022-11-13T06:13:45;1.23;;;1.13;;
33814;SDS011;20121;51.910;8.406;2022-11-13T06:16:15;1.33;;;1.23;;
33814;SDS011;20121;51.910;8.406;2022-11-13T06:18:58;2.15;;;1.17;;
33814;SDS011;20121;51.910;8.406;2022-11-13T06:21:27;1.90;;;1.02;;
33814;SDS011;20121;51.910;8.406;2022-11-13T06:23:55;0.82;;;0.82;;
33814;SDS011;20121;51.910;8.406;2022-11-13T06:26:24;1.80;;;0.90;;
33814;SDS011;20121;51.910;8.406;2022-11-13T06:28:55;1.77;;;1.67;;
33814;SDS011;20121;51.910;8.406;2022-11-13T06:31:22;1.10;;;1.00;;
33814;SDS011;20121;51.910;8.406;2022-11-13T06:33:49;1.15;;;1.02;;
33814;SDS011;20121;51.910;8.406;2022-11-13T06:36:19;0.75;;;0.75;;
33814;SDS011;20121;51.910;8.406;2022-11-13T06:38:46;1.27;;;1.17;;
33814;SDS011;20121;51.910;8.406;2022-11-13T06:41:13;1.02;;;0.88;;
33814;SDS011;20121;51.910;8.406;2022-11-13T06:43:41;1.00;;;0.90;;
33814;SDS011;20121;51.910;8.406;2022-11-13T06:46:15;2.17;;;1.25;;
33814;SDS011;20121;51.910;8.406;2022-11-13T06:48:45;3.42;;;2.25;;
33814;SDS011;20121;51.910;8.406;2022-11-13T06:51:15;1.20;;;1.10;;
33814;SDS011;20121;51.910;8.406;2022-11-13T06:53:43;1.90;;;1.80;;
33814;SDS011;20121;51.910;8.406;2022-11-13T06:56:08;1.07;;;0.97;;
33814;SDS011;20121;51.910;8.406;2022-11-13T06:58:36;1.17;;;1.10;;
33814;SDS011;20121;51.910;8.406;2022-11-13T07:03:36;2.47;;;1.30;;
33814;SDS011;20121;51.910;8.406;2022-11-13T07:06:02;1.92;;;0.85;;
33814;SDS011;20121;51.910;8.406;2022-11-13T07:08:30;1.30;;;1.20;;
33814;SDS011;20121;51.910;8.406;2022-11-13T07:10:57;2.40;;;1.33;;
33814;SDS011;20121;51.910;8.406;2022-11-13T07:13:23;1.10;;;1.00;;
33814;SDS011;20121;51.910;8.406;2022-11-13T07:15:50;1.00;;;0.88;;
33814;SDS011;20121;51.910;8.406;2022-11-13T07:18:15;2.30;;;1.00;;
33814;SDS011;20121;51.910;8.406;2022-11-13T07:20:41;0.70;;;0.63;;
33814;SDS011;20121;51.910;8.406;2022-11-13T07:23:07;1.20;;;0.98;;
33814;SDS011;20121;51.910;8.406;2022-11-13T07:25:33;1.00;;;0.70;;
33814;SDS011;20121;51.910;8.406;2022-11-13T07:28:00;2.80;;;1.20;;
33814;SDS011;20121;51.910;8.406;2022-11-13T07:30:26;1.77;;;1.35;;
33814;SDS011;20121;51.910;8.406;2022-11-13T07:32:52;1.23;;;1.13;;
33814;SDS011;20121;51.910;8.406;2022-11-13T07:35:17;1.60;;;1.07;;
33814;SDS011;20121;51.910;8.406;2022-11-13T07:37:43;1.58;;;1.48;;
33814;SDS011;20121;51.910;8.406;2022-11-13T07:40:09;0.90;;;0.90;;
33814;SDS011;20121;51.910;8.406;2022-11-13T07:42:35;1.90;;;1.25;;
33814;SDS011;20121;51.910;8.406;2022-11-13T07:45:02;1.10;;;1.10;;
33814;SDS011;20121;51.910;8.406;2022-11-13T07:47:28;3.25;;;1.60;;
33814;SDS011;20121;51.910;8.406;2022-11-13T07:49:54;0.80;;;0.80;;
33814;SDS011;20121;51.910;8.406;2022-11-13T07:52:20;1.30;;;0.80;;
33814;SDS011;20121;51.910;8.406;2022-11-13T07:54:45;2.20;;;1.40;;
33814;SDS011;20121;51.910;8.406;2022-11-13T07:57:12;1.40;;;1.30;;
33814;SDS011;20121;51.910;8.406;2022-11-13T07:59:38;1.70;;;0.75;;
33814;SDS011;20121;51.910;8.406;2022-11-13T08:02:04;2.43;;;1.87;;
33814;SDS011;20121;51.910;8.406;2022-11-13T08:04:30;4.15;;;2.80;;
33814;SDS011;20121;51.910;8.406;2022-11-13T08:06:55;3.43;;;2.33;;
33814;SDS011;20121;51.910;8.406;2022-11-13T08:09:21;2.93;;;1.93;;
33814;SDS011;20121;51.910;8.406;2022-11-13T08:11:47;2.00;;;1.80;;
33814;SDS011;20121;51.910;8.406;2022-11-13T08:14:12;1.77;;;1.60;;
33814;SDS011;20121;51.910;8.406;2022-11-13T08:16:38;2.27;;;2.07;;
33814;SDS011;20121;51.910;8.406;2022-11-13T08:19:04;1.37;;;1.23;;
33814;SDS011;20121;51.910;8.406;2022-11-13T08:21:29;2.10;;;1.80;;
33814;SDS011;20121;51.910;8.406;2022-11-13T08:23:55;2.37;;;1.87;;
33814;SDS011;20121;51.910;8.406;2022-11-13T08:26:21;3.17;;;1.53;;
33814;SDS011;20121;51.910;8.406;2022-11-13T08:28:49;9.88;;;0.90;;
33814;SDS011;20121;51.910;8.406;2022-11-13T08:31:15;2.70;;;2.53;;
33814;SDS011;20121;51.910;8.406;2022-11-13T08:33:41;1.20;;;0.90;;
33814;SDS011;20121;51.910;8.406;2022-11-13T08:36:07;1.73;;;1.23;;
33814;SDS011;20121;51.910;8.406;2022-11-13T08:38:33;1.17;;;1.08;;
33814;SDS011;20121;51.910;8.406;2022-11-13T08:41:00;2.00;;;1.60;;
33814;SDS011;20121;51.910;8.406;2022-11-13T08:43:27;3.88;;;2.30;;
33814;SDS011;20121;51.910;8.406;2022-11-13T08:45:53;1.40;;;1.30;;
33814;SDS011;20121;51.910;8.406;2022-11-13T08:48:20;16.85;;;3.25;;
33814;SDS011;20121;51.910;8.406;2022-11-13T08:50:49;3.72;;;2.55;;
33814;SDS011;20121;51.910;8.406;2022-11-13T08:53:16;3.95;;;1.63;;
33814;SDS011;20121;51.910;8.406;2022-11-13T08:55:41;2.60;;;2.03;;
33814;SDS011;20121;51.910;8.406;2022-11-13T08:58:07;4.40;;;1.53;;
33814;SDS011;20121;51.910;8.406;2022-11-13T09:00:33;2.10;;;1.77;;
33814;SDS011;20121;51.910;8.406;2022-11-13T09:02:58;1.43;;;1.23;;
33814;SDS011;20121;51.910;8.406;2022-11-13T09:05:25;1.50;;;1.40;;
33814;SDS011;20121;51.910;8.406;2022-11-13T09:07:54;2.30;;;2.10;;
33814;SDS011;20121;51.910;8.406;2022-11-13T09:10:24;3.85;;;2.00;;
33814;SDS011;20121;51.910;8.406;2022-11-13T09:12:56;1.80;;;1.42;;
33814;SDS011;20121;51.910;8.406;2022-11-13T09:15:25;1.70;;;1.20;;
33814;SDS011;20121;51.910;8.406;2022-11-13T09:17:54;3.22;;;2.20;;
33814;SDS011;20121;51.910;8.406;2022-11-13T09:20:24;1.25;;;1.15;;
33814;SDS011;20121;51.910;8.406;2022-11-13T09:22:57;1.38;;;1.20;;
33814;SDS011;20121;51.910;8.406;2022-11-13T09:25:23;3.75;;;1.60;;
33814;SDS011;20121;51.910;8.406;2022-11-13T09:27:53;1.95;;;1.45;;
33814;SDS011;20121;51.910;8.406;2022-11-13T09:30:21;3.08;;;1.58;;
33814;SDS011;20121;51.910;8.406;2022-11-13T09:32:47;1.20;;;1.08;;
33814;SDS011;20121;51.910;8.406;2022-11-13T09:35:16;2.38;;;1.90;;
33814;SDS011;20121;51.910;8.406;2022-11-13T09:37:57;1.15;;;1.05;;
33814;SDS011;20121;51.910;8.406;2022-11-13T09:40:27;1.38;;;1.20;;
33814;SDS011;20121;51.910;8.406;2022-11-13T09:42:55;2.90;;;1.65;;
33814;SDS011;20121;51.910;8.406;2022-11-13T09:45:21;1.13;;;0.98;;
33814;SDS011;20121;51.910;8.406;2022-11-13T09:47:47;1.67;;;0.93;;
33814;SDS011;20121;51.910;8.406;2022-11-13T09:50:21;1.70;;;0.98;;
33814;SDS011;20121;51.910;8.406;2022-11-13T09:52:50;2.50;;;1.00;;
33814;SDS011;20121;51.910;8.406;2022-11-13T09:55:18;1.48;;;1.38;;
33814;SDS011;20121;51.910;8.406;2022-11-13T10:00:38;3.17;;;1.30;;
33814;SDS011;20121;51.910;8.406;2022-11-13T10:03:38;3.13;;;1.33;;
33814;SDS011;20121;51.910;8.406;2022-11-13T10:08:56;1.00;;;0.90;;
33814;SDS011;20121;51.910;8.406;2022-11-13T10:14:08;2.00;;;1.20;;
33814;SDS011;20121;51.910;8.406;2022-11-13T10:16:50;1.67;;;1.58;;
33814;SDS011;20121;51.910;8.406;2022-11-13T10:19:24;1.83;;;1.67;;
33814;SDS011;20121;51.910;8.406;2022-11-13T10:22:12;2.00;;;1.23;;
33814;SDS011;20121;51.910;8.406;2022-11-13T10:25:00;2.00;;;1.33;;
33814;SDS011;20121;51.910;8.406;2022-11-13T10:27:47;1.15;;;0.98;;
33814;SDS011;20121;51.910;8.406;2022-11-13T10:30:34;1.35;;;1.25;;
33814;SDS011;20121;51.910;8.406;2022-11-13T10:33:01;0.70;;;0.70;;
33814;SDS011;20121;51.910;8.406;2022-11-13T10:38:23;1.20;;;0.77;;
33814;SDS011;20121;51.910;8.406;2022-11-13T10:40:49;1.70;;;1.40;;
33814;SDS011;20121;51.910;8.406;2022-11-13T10:45:57;2.00;;;1.73;;
33814;SDS011;20121;51.910;8.406;2022-11-13T10:48:29;1.60;;;1.48;;
33814;SDS011;20121;51.910;8.406;2022-11-13T10:53:27;2.65;;;1.42;;
33814;SDS011;20121;51.910;8.406;2022-11-13T11:01:37;0.93;;;0.75;;
33814;SDS011;20121;51.910;8.406;2022-11-13T11:04:04;1.10;;;1.00;;
33814;SDS011;20121;51.910;8.406;2022-11-13T11:07:02;1.80;;;1.10;;
33814;SDS011;20121;51.910;8.406;2022-11-13T11:09:35;2.15;;;1.92;;
33814;SDS011;20121;51.910;8.406;2022-11-13T11:17:26;2.00;;;1.90;;
33814;SDS011;20121;51.910;8.406;2022-11-13T11:20:09;3.50;;;2.13;;
33814;SDS011;20121;51.910;8.406;2022-11-13T11:23:10;2.30;;;2.10;;
33814;SDS011;20121;51.910;8.406;2022-11-13T11:25:54;3.22;;;2.50;;
33814;SDS011;20121;51.910;8.406;2022-11-13T11:33:41;5.63;;;3.28;;
33814;SDS011;20121;51.910;8.406;2022-11-13T11:36:40;5.07;;;2.45;;
33814;SDS011;20121;51.910;8.406;2022-11-13T11:39:34;3.42;;;3.13;;
33814;SDS011;20121;51.910;8.406;2022-11-13T11:42:13;5.30;;;2.35;;
33814;SDS011;20121;51.910;8.406;2022-11-13T11:45:19;2.83;;;1.75;;
33814;SDS011;20121;51.910;8.406;2022-11-13T11:47:45;3.00;;;2.08;;
33814;SDS011;20121;51.910;8.406;2022-11-13T11:50:29;2.30;;;2.10;;
33814;SDS011;20121;51.910;8.406;2022-11-13T12:00:52;3.10;;;2.80;;
33814;SDS011;20121;51.910;8.406;2022-11-13T12:06:28;1.67;;;1.57;;
33814;SDS011;20121;51.910;8.406;2022-11-13T12:11:51;1.85;;;1.75;;
33814;SDS011;20121;51.910;8.406;2022-11-13T12:14:40;1.45;;;1.33;;
33814;SDS011;20121;51.910;8.406;2022-11-13T12:22:58;2.13;;;1.25;;
33814;SDS011;20121;51.910;8.406;2022-11-13T12:25:54;2.10;;;1.50;;
33814;SDS011;20121;51.910;8.406;2022-11-13T12:28:27;1.60;;;1.30;;
33814;SDS011;20121;51.910;8.406;2022-11-13T12:34:30;1.17;;;1.10;;
33814;SDS011;20121;51.910;8.406;2022-11-13T12:37:09;1.77;;;1.17;;
33814;SDS011;20121;51.910;8.406;2022-11-13T12:42:10;2.08;;;1.73;;
33814;SDS011;20121;51.910;8.406;2022-11-13T12:47:41;1.55;;;1.45;;
33814;SDS011;20121;51.910;8.406;2022-11-13T12:50:22;1.45;;;0.85;;
33814;SDS011;20121;51.910;8.406;2022-11-13T12:53:00;2.42;;;1.70;;
33814;SDS011;20121;51.910;8.406;2022-11-13T12:55:32;1.23;;;1.13;;
33814;SDS011;20121;51.910;8.406;2022-11-13T12:58:18;1.23;;;1.13;;
33814;SDS011;20121;51.910;8.406;2022-11-13T13:00:53;1.33;;;1.23;;
33814;SDS011;20121;51.910;8.406;2022-11-13T13:14:34;1.73;;;1.38;;
33814;SDS011;20121;51.910;8.406;2022-11-13T13:17:25;0.80;;;0.80;;
33814;SDS011;20121;51.910;8.406;2022-11-13T13:19:57;2.10;;;1.03;;
33814;SDS011;20121;51.910;8.406;2022-11-13T13:22:56;1.30;;;1.20;;
33814;SDS011;20121;51.910;8.406;2022-11-13T13:28:00;1.70;;;0.90;;
33814;SDS011;20121;51.910;8.406;2022-11-13T13:30:47;1.77;;;1.42;;
33814;SDS011;20121;51.910;8.406;2022-11-13T13:36:09;1.23;;;1.13;;
33814;SDS011;20121;51.910;8.406;2022-11-13T13:47:42;0.80;;;0.70;;
33814;SDS011;20121;51.910;8.406;2022-11-13T13:50:15;0.90;;;0.90;;
33814;SDS011;20121;51.910;8.406;2022-11-13T13:52:44;1.00;;;0.90;;
33814;SDS011;20121;51.910;8.406;2022-11-13T13:55:15;1.07;;;1.00;;
33814;SDS011;20121;51.910;8.406;2022-11-13T13:57:43;1.98;;;1.10;;
33814;SDS011;20121;51.910;8.406;2022-11-13T14:00:13;1.65;;;0.98;;
33814;SDS011;20121;51.910;8.406;2022-11-13T14:02:45;2.10;;;1.50;;
33814;SDS011;20121;51.910;8.406;2022-11-13T14:05:31;1.10;;;1.00;;
33814;SDS011;20121;51.910;8.406;2022-11-13T14:07:59;1.38;;;1.00;;
33814;SDS011;20121;51.910;8.406;2022-11-13T14:10:31;2.25;;;1.08;;
33814;SDS011;20121;51.910;8.406;2022-11-13T14:13:00;1.83;;;1.25;;
33814;SDS011;20121;51.910;8.406;2022-11-13T14:15:32;2.03;;;1.00;;
33814;SDS011;20121;51.910;8.406;2022-11-13T14:20:47;0.90;;;0.90;;
33814;SDS011;20121;51.910;8.406;2022-11-13T14:23:24;1.45;;;1.13;;
33814;SDS011;20121;51.910;8.406;2022-11-13T14:26:02;1.00;;;0.90;;
33814;SDS011;20121;51.910;8.406;2022-11-13T14:28:30;1.45;;;1.00;;
33814;SDS011;20121;51.910;8.406;2022-11-13T14:33:41;1.10;;;0.90;;
33814;SDS011;20121;51.910;8.406;2022-11-13T14:36:12;1.67;;;1.10;;
33814;SDS011;20121;51.910;8.406;2022-11-13T14:38:42;1.73;;;1.60;;
33814;SDS011;20121;51.910;8.406;2022-11-13T14:41:52;1.02;;;0.85;;
33814;SDS011;20121;51.910;8.406;2022-11-13T14:44:02;3.03;;;1.38;;
33814;SDS011;20121;51.910;8.406;2022-11-13T14:46:29;2.17;;;1.35;;
33814;SDS011;20121;51.910;8.406;2022-11-13T14:48:58;5.38;;;1.90;;
33814;SDS011;20121;51.910;8.406;2022-11-13T14:51:25;3.20;;;1.40;;
33814;SDS011;20121;51.910;8.406;2022-11-13T14:59:13;2.63;;;1.60;;
33814;SDS011;20121;51.910;8.406;2022-11-13T15:01:53;1.77;;;1.67;;
33814;SDS011;20121;51.910;8.406;2022-11-13T15:04:20;3.78;;;2.70;;
33814;SDS011;20121;51.910;8.406;2022-11-13T15:06:46;3.00;;;2.40;;
33814;SDS011;20121;51.910;8.406;2022-11-13T15:09:13;2.72;;;2.30;;
33814;SDS011;20121;51.910;8.406;2022-11-13T15:11:41;5.20;;;2.58;;
33814;SDS011;20121;51.910;8.406;2022-11-13T15:14:19;4.45;;;2.10;;
33814;SDS011;20121;51.910;8.406;2022-11-13T15:16:46;2.88;;;2.30;;
33814;SDS011;20121;51.910;8.406;2022-11-13T15:19:15;1.20;;;1.10;;
33814;SDS011;20121;51.910;8.406;2022-11-13T15:21:49;2.83;;;2.10;;
33814;SDS011;20121;51.910;8.406;2022-11-13T15:24:15;2.80;;;1.70;;
33814;SDS011;20121;51.910;8.406;2022-11-13T15:26:41;4.03;;;1.95;;
33814;SDS011;20121;51.910;8.406;2022-11-13T15:29:07;1.77;;;1.67;;
33814;SDS011;20121;51.910;8.406;2022-11-13T15:31:34;1.20;;;1.10;;
33814;SDS011;20121;51.910;8.406;2022-11-13T15:34:02;3.70;;;1.70;;
33814;SDS011;20121;51.910;8.406;2022-11-13T15:36:28;1.95;;;1.83;;
33814;SDS011;20121;51.910;8.406;2022-11-13T15:38:54;2.50;;;1.30;;
33814;SDS011;20121;51.910;8.406;2022-11-13T15:41:23;5.30;;;2.30;;
33814;SDS011;20121;51.910;8.406;2022-11-13T15:43:52;5.15;;;1.40;;
33814;SDS011;20121;51.910;8.406;2022-11-13T15:46:19;0.90;;;0.90;;
33814;SDS011;20121;51.910;8.406;2022-11-13T15:48:47;1.60;;;1.33;;
33814;SDS011;20121;51.910;8.406;2022-11-13T15:54:17;2.08;;;1.60;;
33814;SDS011;20121;51.910;8.406;2022-11-13T15:56:48;1.42;;;1.33;;
33814;SDS011;20121;51.910;8.406;2022-11-13T15:59:15;4.43;;;1.80;;
33814;SDS011;20121;51.910;8.406;2022-11-13T16:01:41;1.88;;;1.50;;
33814;SDS011;20121;51.910;8.406;2022-11-13T16:04:06;3.10;;;2.10;;
33814;SDS011;20121;51.910;8.406;2022-11-13T16:06:33;2.47;;;2.10;;
33814;SDS011;20121;51.910;8.406;2022-11-13T16:09:00;2.20;;;1.55;;
33814;SDS011;20121;51.910;8.406;2022-11-13T16:11:26;5.32;;;2.63;;
33814;SDS011;20121;51.910;8.406;2022-11-13T16:13:57;2.83;;;1.75;;
33814;SDS011;20121;51.910;8.406;2022-11-13T16:16:24;1.57;;;1.47;;
33814;SDS011;20121;51.910;8.406;2022-11-13T16:18:53;2.10;;;1.52;;
33814;SDS011;20121;51.910;8.406;2022-11-13T16:21:19;1.47;;;1.00;;
33814;SDS011;20121;51.910;8.406;2022-11-13T16:23:45;2.17;;;1.73;;
33814;SDS011;20121;51.910;8.406;2022-11-13T16:26:16;3.40;;;2.00;;
33814;SDS011;20121;51.910;8.406;2022-11-13T16:28:43;3.05;;;2.08;;
33814;SDS011;20121;51.910;8.406;2022-11-13T16:31:09;2.20;;;2.00;;
33814;SDS011;20121;51.910;8.406;2022-11-13T16:33:35;2.23;;;2.03;;
33814;SDS011;20121;51.910;8.406;2022-11-13T16:36:01;4.78;;;2.17;;
33814;SDS011;20121;51.910;8.406;2022-11-13T16:38:27;1.73;;;1.63;;
33814;SDS011;20121;51.910;8.406;2022-11-13T16:40:53;1.93;;;1.70;;
33814;SDS011;20121;51.910;8.406;2022-11-13T16:43:18;3.13;;;1.83;;
33814;SDS011;20121;51.910;8.406;2022-11-13T16:45:44;2.37;;;2.17;;
33814;SDS011;20121;51.910;8.406;2022-11-13T16:48:13;2.93;;;2.33;;